sensor_id;sensor_type;location;lat;lon;timestamp;pressure;altitude;pressure_sealevel;temperature;humidity
25722;BME280;13578;53.450;15.496;2023-04-06T00:00:34;100349.09;;;-1.45;100.00
25722;BME280;13578;53.450;15.496;2023-04-06T00:03:35;100335.00;;;-1.53;100.00
25722;BME280;13578;53.450;15.496;2023-04-06T00:06:35;100349.13;;;-1.47;100.00
25722;BME280;13578;53.450;15.496;2023-04-06T00:09:36;100348.41;;;-1.52;100.00
25722;BME280;13578;53.450;15.496;2023-04-06T00:12:37;100334.09;;;-1.54;100.00
25722;BME280;13578;53.450;15.496;2023-04-06T00:15:37;100344.78;;;-1.51;100.00
25722;BME280;13578;53.450;15.496;2023-04-06T00:18:38;100332.53;;;-1.61;100.00
25722;BME280;13578;53.450;15.496;2023-04-06T00:21:39;100341.56;;;-1.62;100.00
25722;BME280;13578;53.450;15.496;2023-04-06T00:24:39;100354.72;;;-1.53;100.00
25722;BME280;13578;53.450;15.496;2023-04-06T00:27:40;100357.38;;;-1.51;100.00
25722;BME280;13578;53.450;15.496;2023-04-06T00:30:41;100356.41;;;-1.49;100.00
25722;BME280;13578;53.450;15.496;2023-04-06T00:33:42;100354.50;;;-1.45;100.00
25722;BME280;13578;53.450;15.496;2023-04-06T00:36:42;100337.34;;;-1.42;100.00
25722;BME280;13578;53.450;15.496;2023-04-06T00:39:43;100361.16;;;-1.29;100.00
25722;BME280;13578;53.450;15.496;2023-04-06T00:42:43;100344.78;;;-1.22;100.00
25722;BME280;13578;53.450;15.496;2023-04-06T00:45:44;100340.28;;;-1.22;100.00
25722;BME280;13578;53.450;15.496;2023-04-06T00:48:45;100334.81;;;-1.20;100.00
25722;BME280;13578;53.450;15.496;2023-04-06T00:51:46;100338.63;;;-1.26;100.00
25722;BME280;13578;53.450;15.496;2023-04-06T00:54:46;100324.41;;;-1.31;100.00
25722;BME280;13578;53.450;15.496;2023-04-06T00:57:47;100335.09;;;-1.28;100.00
25722;BME280;13578;53.450;15.496;2023-04-06T01:00:48;100338.97;;;-1.37;100.00
25722;BME280;13578;53.450;15.496;2023-04-06T01:03:49;100350.34;;;-1.27;100.00
25722;BME280;13578;53.450;15.496;2023-04-06T01:06:50;100340.91;;;-1.42;100.00
25722;BME280;13578;53.450;15.496;2023-04-06T01:09:56;100345.03;;;-1.58;100.00
25722;BME280;13578;53.450;15.496;2023-04-06T01:12:57;100343.13;;;-1.55;100.00
25722;BME280;13578;53.450;15.496;2023-04-06T01:15:57;100331.03;;;-1.70;100.00
25722;BME280;13578;53.450;15.496;2023-04-06T01:18:58;100341.56;;;-1.62;100.00
25722;BME280;13578;53.450;15.496;2023-04-06T01:21:58;100346.75;;;-1.56;100.00
25722;BME280;13578;53.450;15.496;2023-04-06T01:24:59;100330.69;;;-1.59;100.00
25722;BME280;13578;53.450;15.496;2023-04-06T01:28:00;100333.97;;;-1.49;100.00
25722;BME280;13578;53.450;15.496;2023-04-06T01:31:00;100338.34;;;-1.47;100.00
25722;BME280;13578;53.450;15.496;2023-04-06T01:34:01;100335.50;;;-1.40;100.00
25722;BME280;13578;53.450;15.496;2023-04-06T01:37:02;100332.84;;;-1.42;100.00
25722;BME280;13578;53.450;15.496;2023-04-06T01:40:03;100325.69;;;-1.43;100.00
25722;BME280;13578;53.450;15.496;2023-04-06T01:43:03;100326.97;;;-1.26;100.00
25722;BME280;13578;53.450;15.496;2023-04-06T01:46:04;100318.16;;;-1.32;100.00
25722;BME280;13578;53.450;15.496;2023-04-06T01:49:05;100325.97;;;-1.24;100.00
25722;BME280;13578;53.450;15.496;2023-04-06T01:52:06;100332.50;;;-1.31;100.00
25722;BME280;13578;53.450;15.496;2023-04-06T01:55:07;100315.53;;;-1.33;100.00
25722;BME280;13578;53.450;15.496;2023-04-06T01:58:07;100326.38;;;-1.36;100.00
25722;BME280;13578;53.450;15.496;2023-04-06T02:01:08;100318.44;;;-1.41;100.00
25722;BME280;13578;53.450;15.496;2023-04-06T02:04:08;100330.28;;;-1.47;100.00
25722;BME280;13578;53.450;15.496;2023-04-06T02:07:09;100329.16;;;-1.39;100.00
25722;BME280;13578;53.450;15.496;2023-04-06T02:10:14;100312.06;;;-1.38;100.00
25722;BME280;13578;53.450;15.496;2023-04-06T02:13:14;100316.16;;;-1.53;100.00
25722;BME280;13578;53.450;15.496;2023-04-06T02:16:15;100324.13;;;-1.50;100.00
25722;BME280;13578;53.450;15.496;2023-04-06T02:19:16;100327.84;;;-1.54;100.00
25722;BME280;13578;53.450;15.496;2023-04-06T02:22:17;100329.47;;;-1.49;100.00
25722;BME280;13578;53.450;15.496;2023-04-06T02:25:17;100328.72;;;-1.54;100.00
25722;BME280;13578;53.450;15.496;2023-04-06T02:28:18;100319.97;;;-1.61;100.00
25722;BME280;13578;53.450;15.496;2023-04-06T02:31:18;100312.03;;;-1.65;100.00
25722;BME280;13578;53.450;15.496;2023-04-06T02:34:19;100316.56;;;-1.67;100.00
25722;BME280;13578;53.450;15.496;2023-04-06T02:37:20;100331.94;;;-1.71;100.00
25722;BME280;13578;53.450;15.496;2023-04-06T02:40:21;100327.47;;;-1.72;100.00
25722;BME280;13578;53.450;15.496;2023-04-06T02:43:21;100325.09;;;-1.81;100.00
25722;BME280;13578;53.450;15.496;2023-04-06T02:46:22;100327.97;;;-1.87;100.00
25722;BME280;13578;53.450;15.496;2023-04-06T02:49:23;100336.91;;;-1.87;100.00
25722;BME280;13578;53.450;15.496;2023-04-06T02:52:23;100328.38;;;-2.01;100.00
25722;BME280;13578;53.450;15.496;2023-04-06T02:55:24;100331.00;;;-1.98;100.00
25722;BME280;13578;53.450;15.496;2023-04-06T02:58:25;100330.94;;;-1.97;100.00
25722;BME280;13578;53.450;15.496;2023-04-06T03:01:26;100333.31;;;-1.86;100.00
25722;BME280;13578;53.450;15.496;2023-04-06T03:04:26;100328.72;;;-1.82;100.00
25722;BME280;13578;53.450;15.496;2023-04-06T03:07:27;100325.28;;;-1.87;100.00
25722;BME280;13578;53.450;15.496;2023-04-06T03:10:27;100328.13;;;-1.94;100.00
25722;BME280;13578;53.450;15.496;2023-04-06T03:13:28;100338.78;;;-1.89;100.00
25722;BME280;13578;53.450;15.496;2023-04-06T03:16:29;100328.19;;;-1.95;100.00
25722;BME280;13578;53.450;15.496;2023-04-06T03:19:29;100337.31;;;-1.99;100.00
25722;BME280;13578;53.450;15.496;2023-04-06T03:22:30;100343.63;;;-2.02;100.00
25722;BME280;13578;53.450;15.496;2023-04-06T03:25:30;100323.13;;;-2.06;100.00
25722;BME280;13578;53.450;15.496;2023-04-06T03:28:31;100331.94;;;-2.01;100.00
25722;BME280;13578;53.450;15.496;2023-04-06T03:31:32;100335.41;;;-1.97;100.00
25722;BME280;13578;53.450;15.496;2023-04-06T03:34:32;100330.03;;;-1.96;100.00
25722;BME280;13578;53.450;15.496;2023-04-06T03:37:33;100327.94;;;-1.86;100.00
25722;BME280;13578;53.450;15.496;2023-04-06T03:40:34;100331.63;;;-1.90;100.00
25722;BME280;13578;53.450;15.496;2023-04-06T03:43:34;100331.72;;;-1.93;100.00
25722;BME280;13578;53.450;15.496;2023-04-06T03:46:35;100339.75;;;-1.92;100.00
25722;BME280;13578;53.450;15.496;2023-04-06T03:49:36;100356.50;;;-1.82;100.00
25722;BME280;13578;53.450;15.496;2023-04-06T03:52:37;100358.19;;;-1.78;100.00
25722;BME280;13578;53.450;15.496;2023-04-06T03:55:37;100358.19;;;-1.79;100.00
25722;BME280;13578;53.450;15.496;2023-04-06T03:58:38;100365.22;;;-1.73;100.00
25722;BME280;13578;53.450;15.496;2023-04-06T04:01:38;100350.13;;;-1.79;100.00
25722;BME280;13578;53.450;15.496;2023-04-06T04:04:39;100362.84;;;-1.84;100.00
25722;BME280;13578;53.450;15.496;2023-04-06T04:07:40;100361.09;;;-1.85;100.00
25722;BME280;13578;53.450;15.496;2023-04-06T04:10:41;100370.13;;;-1.88;100.00
25722;BME280;13578;53.450;15.496;2023-04-06T04:13:41;100362.44;;;-2.00;100.00
25722;BME280;13578;53.450;15.496;2023-04-06T04:16:42;100368.56;;;-1.95;100.00
25722;BME280;13578;53.450;15.496;2023-04-06T04:19:43;100382.19;;;-2.01;100.00
25722;BME280;13578;53.450;15.496;2023-04-06T04:22:43;100384.13;;;-2.06;100.00
25722;BME280;13578;53.450;15.496;2023-04-06T04:25:44;100373.19;;;-2.00;100.00
25722;BME280;13578;53.450;15.496;2023-04-06T04:28:44;100376.88;;;-2.03;100.00
25722;BME280;13578;53.450;15.496;2023-04-06T04:31:45;100378.03;;;-1.82;100.00
25722;BME280;13578;53.450;15.496;2023-04-06T04:34:46;100378.88;;;-1.80;100.00
25722;BME280;13578;53.450;15.496;2023-04-06T04:37:47;100385.13;;;-1.79;100.00
25722;BME280;13578;53.450;15.496;2023-04-06T04:40:47;100390.97;;;-1.65;100.00
25722;BME280;13578;53.450;15.496;2023-04-06T04:43:48;100383.53;;;-1.56;100.00
25722;BME280;13578;53.450;15.496;2023-04-06T04:46:48;100392.88;;;-1.38;100.00
25722;BME280;13578;53.450;15.496;2023-04-06T04:49:49;100384.44;;;-1.28;100.00
25722;BME280;13578;53.450;15.496;2023-04-06T04:52:50;100385.00;;;-1.16;100.00
25722;BME280;13578;53.450;15.496;2023-04-06T04:55:51;100379.06;;;-1.28;100.00
25722;BME280;13578;53.450;15.496;2023-04-06T04:58:51;100390.44;;;-1.18;100.00
25722;BME280;13578;53.450;15.496;2023-04-06T05:01:52;100376.78;;;-1.13;100.00
25722;BME280;13578;53.450;15.496;2023-04-06T05:04:52;100400.19;;;-0.87;100.00
25722;BME280;13578;53.450;15.496;2023-04-06T05:07:53;100380.19;;;-0.80;100.00
25722;BME280;13578;53.450;15.496;2023-04-06T05:10:54;100381.44;;;-0.63;100.00
25722;BME280;13578;53.450;15.496;2023-04-06T05:13:54;100387.28;;;-0.50;100.00
25722;BME280;13578;53.450;15.496;2023-04-06T05:16:55;100390.75;;;-0.46;100.00
25722;BME280;13578;53.450;15.496;2023-04-06T05:19:56;100380.97;;;-0.49;100.00
25722;BME280;13578;53.450;15.496;2023-04-06T05:22:56;100394.56;;;-0.27;100.00
25722;BME280;13578;53.450;15.496;2023-04-06T05:25:57;100385.22;;;-0.17;100.00
25722;BME280;13578;53.450;15.496;2023-04-06T05:28:58;100392.84;;;-0.04;100.00
25722;BME280;13578;53.450;15.496;2023-04-06T05:31:58;100387.81;;;0.10;100.00
25722;BME280;13578;53.450;15.496;2023-04-06T05:34:59;100391.22;;;0.15;100.00
25722;BME280;13578;53.450;15.496;2023-04-06T05:38:00;100394.88;;;0.14;100.00
25722;BME280;13578;53.450;15.496;2023-04-06T05:41:00;100391.53;;;0.31;100.00
25722;BME280;13578;53.450;15.496;2023-04-06T05:44:01;100395.94;;;0.34;100.00
25722;BME280;13578;53.450;15.496;2023-04-06T05:47:01;100381.44;;;0.37;100.00
25722;BME280;13578;53.450;15.496;2023-04-06T05:50:02;100375.72;;;0.44;100.00
25722;BME280;13578;53.450;15.496;2023-04-06T05:53:03;100378.06;;;0.54;100.00
25722;BME280;13578;53.450;15.496;2023-04-06T05:56:04;100370.53;;;0.62;100.00
25722;BME280;13578;53.450;15.496;2023-04-06T05:59:05;100363.88;;;0.71;100.00
25722;BME280;13578;53.450;15.496;2023-04-06T06:02:06;100367.81;;;0.86;100.00
25722;BME280;13578;53.450;15.496;2023-04-06T06:05:07;100368.38;;;0.94;100.00
25722;BME280;13578;53.450;15.496;2023-04-06T06:08:07;100370.56;;;1.06;100.00
25722;BME280;13578;53.450;15.496;2023-04-06T06:11:08;100373.34;;;1.05;100.00
25722;BME280;13578;53.450;15.496;2023-04-06T06:14:08;100379.03;;;1.19;100.00
25722;BME280;13578;53.450;15.496;2023-04-06T06:17:09;100381.28;;;1.30;100.00
25722;BME280;13578;53.450;15.496;2023-04-06T06:20:10;100391.03;;;1.55;100.00
25722;BME280;13578;53.450;15.496;2023-04-06T06:23:11;100368.25;;;1.61;100.00
25722;BME280;13578;53.450;15.496;2023-04-06T06:26:12;100377.09;;;1.85;100.00
25722;BME280;13578;53.450;15.496;2023-04-06T06:29:12;100376.50;;;1.99;100.00
25722;BME280;13578;53.450;15.496;2023-04-06T06:32:13;100374.66;;;2.20;100.00
25722;BME280;13578;53.450;15.496;2023-04-06T06:35:14;100374.72;;;2.37;100.00
25722;BME280;13578;53.450;15.496;2023-04-06T06:38:15;100369.03;;;2.63;100.00
25722;BME280;13578;53.450;15.496;2023-04-06T06:41:16;100347.19;;;2.66;100.00
25722;BME280;13578;53.450;15.496;2023-04-06T06:44:16;100352.19;;;2.75;100.00
25722;BME280;13578;53.450;15.496;2023-04-06T06:47:17;100359.53;;;2.91;100.00
25722;BME280;13578;53.450;15.496;2023-04-06T06:50:18;100342.72;;;3.01;100.00
25722;BME280;13578;53.450;15.496;2023-04-06T06:53:19;100332.25;;;3.13;100.00
25722;BME280;13578;53.450;15.496;2023-04-06T06:56:20;100345.03;;;3.28;100.00
25722;BME280;13578;53.450;15.496;2023-04-06T06:59:21;100343.75;;;3.36;100.00
25722;BME280;13578;53.450;15.496;2023-04-06T07:02:21;100326.91;;;3.46;100.00
25722;BME280;13578;53.450;15.496;2023-04-06T07:05:22;100317.97;;;3.44;100.00
25722;BME280;13578;53.450;15.496;2023-04-06T07:08:23;100333.69;;;3.55;100.00
25722;BME280;13578;53.450;15.496;2023-04-06T07:11:24;100346.88;;;3.63;100.00
25722;BME280;13578;53.450;15.496;2023-04-06T07:14:25;100335.03;;;3.81;100.00
25722;BME280;13578;53.450;15.496;2023-04-06T07:17:26;100339.13;;;3.73;100.00
25722;BME280;13578;53.450;15.496;2023-04-06T07:20:27;100336.31;;;3.74;100.00
25722;BME280;13578;53.450;15.496;2023-04-06T07:23:28;100326.16;;;3.95;100.00
25722;BME280;13578;53.450;15.496;2023-04-06T07:26:28;100353.00;;;4.18;100.00
25722;BME280;13578;53.450;15.496;2023-04-06T07:29:29;100321.41;;;4.33;100.00
25722;BME280;13578;53.450;15.496;2023-04-06T07:32:30;100315.63;;;4.39;100.00
25722;BME280;13578;53.450;15.496;2023-04-06T07:35:30;100323.88;;;4.53;100.00
25722;BME280;13578;53.450;15.496;2023-04-06T07:38:31;100310.88;;;4.58;100.00
25722;BME280;13578;53.450;15.496;2023-04-06T07:41:32;100311.50;;;4.64;100.00
25722;BME280;13578;53.450;15.496;2023-04-06T07:44:33;100308.59;;;4.83;100.00
25722;BME280;13578;53.450;15.496;2023-04-06T07:47:33;100319.47;;;4.99;100.00
25722;BME280;13578;53.450;15.496;2023-04-06T07:50:34;100313.19;;;5.13;100.00
25722;BME280;13578;53.450;15.496;2023-04-06T07:53:35;100284.56;;;5.21;97.03
25722;BME280;13578;53.450;15.496;2023-04-06T07:56:36;100283.78;;;5.19;96.25
25722;BME280;13578;53.450;15.496;2023-04-06T07:59:36;100292.72;;;5.21;95.80
25722;BME280;13578;53.450;15.496;2023-04-06T08:02:37;100299.56;;;5.29;97.02
25722;BME280;13578;53.450;15.496;2023-04-06T08:05:38;100291.91;;;5.35;95.92
25722;BME280;13578;53.450;15.496;2023-04-06T08:08:38;100264.56;;;5.37;91.85
25722;BME280;13578;53.450;15.496;2023-04-06T08:11:39;100291.28;;;5.61;93.21
25722;BME280;13578;53.450;15.496;2023-04-06T08:14:40;100272.72;;;5.67;90.05
25722;BME280;13578;53.450;15.496;2023-04-06T08:17:41;100288.88;;;5.85;90.89
25722;BME280;13578;53.450;15.496;2023-04-06T08:20:41;100279.25;;;5.94;87.59
25722;BME280;13578;53.450;15.496;2023-04-06T08:23:42;100250.25;;;5.93;84.29
25722;BME280;13578;53.450;15.496;2023-04-06T08:26:43;100249.06;;;5.97;82.26
25722;BME280;13578;53.450;15.496;2023-04-06T08:29:43;100271.50;;;6.16;85.26
25722;BME280;13578;53.450;15.496;2023-04-06T08:32:44;100255.59;;;6.23;81.64
25722;BME280;13578;53.450;15.496;2023-04-06T08:35:45;100256.53;;;6.09;83.02
25722;BME280;13578;53.450;15.496;2023-04-06T08:38:46;100288.22;;;6.25;84.97
25722;BME280;13578;53.450;15.496;2023-04-06T08:41:47;100256.97;;;6.30;82.13
25722;BME280;13578;53.450;15.496;2023-04-06T08:44:49;100245.66;;;6.36;78.43
25722;BME280;13578;53.450;15.496;2023-04-06T08:47:51;100238.16;;;6.40;77.11
25722;BME280;13578;53.450;15.496;2023-04-06T08:50:52;100280.59;;;6.44;79.91
25722;BME280;13578;53.450;15.496;2023-04-06T08:53:56;100255.00;;;6.47;77.98
25722;BME280;13578;53.450;15.496;2023-04-06T08:56:57;100280.91;;;6.40;80.69
25722;BME280;13578;53.450;15.496;2023-04-06T09:00:00;100265.69;;;6.50;78.95
25722;BME280;13578;53.450;15.496;2023-04-06T09:03:01;100269.41;;;6.49;78.79
25722;BME280;13578;53.450;15.496;2023-04-06T09:06:04;100247.63;;;6.62;77.58
25722;BME280;13578;53.450;15.496;2023-04-06T09:09:05;100254.38;;;6.83;77.70
25722;BME280;13578;53.450;15.496;2023-04-06T09:12:05;100235.56;;;6.93;74.30
25722;BME280;13578;53.450;15.496;2023-04-06T09:15:18;100274.63;;;6.94;79.98
25722;BME280;13578;53.450;15.496;2023-04-06T09:18:30;100258.66;;;6.88;78.02
25722;BME280;13578;53.450;15.496;2023-04-06T09:21:32;100236.47;;;6.79;75.78
25722;BME280;13578;53.450;15.496;2023-04-06T09:24:46;100227.56;;;6.63;72.20
25722;BME280;13578;53.450;15.496;2023-04-06T09:27:47;100248.78;;;6.72;75.89
25722;BME280;13578;53.450;15.496;2023-04-06T09:30:48;100254.31;;;6.98;76.14
25722;BME280;13578;53.450;15.496;2023-04-06T09:33:50;100240.94;;;7.08;74.22
25722;BME280;13578;53.450;15.496;2023-04-06T09:36:52;100233.19;;;6.74;73.83
25722;BME280;13578;53.450;15.496;2023-04-06T09:40:05;100226.34;;;6.81;72.98
25722;BME280;13578;53.450;15.496;2023-04-06T09:43:09;100255.50;;;6.94;75.58
25722;BME280;13578;53.450;15.496;2023-04-06T09:46:10;100256.97;;;6.99;79.49
25722;BME280;13578;53.450;15.496;2023-04-06T09:49:11;100289.47;;;7.30;81.03
25722;BME280;13578;53.450;15.496;2023-04-06T09:52:14;100233.25;;;7.40;74.98
25722;BME280;13578;53.450;15.496;2023-04-06T09:55:22;100251.63;;;7.51;76.31
25722;BME280;13578;53.450;15.496;2023-04-06T09:58:24;100222.56;;;7.63;72.06
25722;BME280;13578;53.450;15.496;2023-04-06T10:01:28;100271.41;;;7.93;78.08
25722;BME280;13578;53.450;15.496;2023-04-06T10:07:42;100244.06;;;7.81;73.03
25722;BME280;13578;53.450;15.496;2023-04-06T10:10:44;100233.91;;;7.70;71.65
25722;BME280;13578;53.450;15.496;2023-04-06T10:13:47;100218.59;;;7.67;69.34
25722;BME280;13578;53.450;15.496;2023-04-06T10:16:49;100247.66;;;7.94;71.84
25722;BME280;13578;53.450;15.496;2023-04-06T10:19:57;100285.25;;;8.29;76.10
25722;BME280;13578;53.450;15.496;2023-04-06T10:23:13;100195.69;;;8.20;66.62
25722;BME280;13578;53.450;15.496;2023-04-06T10:26:20;100207.63;;;8.19;66.86
25722;BME280;13578;53.450;15.496;2023-04-06T10:29:21;100165.03;;;7.90;61.99
25722;BME280;13578;53.450;15.496;2023-04-06T10:32:35;100171.31;;;7.67;61.07
25722;BME280;13578;53.450;15.496;2023-04-06T10:35:37;100169.84;;;7.87;61.22
25722;BME280;13578;53.450;15.496;2023-04-06T10:38:39;100224.88;;;8.19;68.79
25722;BME280;13578;53.450;15.496;2023-04-06T10:41:42;100225.69;;;8.46;67.45
25722;BME280;13578;53.450;15.496;2023-04-06T10:44:44;100221.09;;;8.59;68.65
25722;BME280;13578;53.450;15.496;2023-04-06T10:47:47;100197.94;;;8.39;65.31
25722;BME280;13578;53.450;15.496;2023-04-06T10:50:49;100218.47;;;8.45;67.80
25722;BME280;13578;53.450;15.496;2023-04-06T10:53:53;100212.59;;;8.51;68.50
25722;BME280;13578;53.450;15.496;2023-04-06T10:56:54;100195.19;;;8.76;66.24
25722;BME280;13578;53.450;15.496;2023-04-06T10:59:56;100228.03;;;9.12;70.09
25722;BME280;13578;53.450;15.496;2023-04-06T11:03:00;100198.47;;;9.17;65.31
25722;BME280;13578;53.450;15.496;2023-04-06T11:06:01;100164.56;;;9.06;61.20
25722;BME280;13578;53.450;15.496;2023-04-06T11:09:02;100166.25;;;8.61;60.68
25722;BME280;13578;53.450;15.496;2023-04-06T11:12:02;100155.47;;;8.46;60.41
25722;BME280;13578;53.450;15.496;2023-04-06T11:15:03;100172.75;;;8.95;63.11
25722;BME280;13578;53.450;15.496;2023-04-06T11:18:04;100207.84;;;9.37;67.48
25722;BME280;13578;53.450;15.496;2023-04-06T11:21:05;100185.84;;;9.73;63.87
25722;BME280;13578;53.450;15.496;2023-04-06T11:24:11;100188.84;;;9.81;63.20
25722;BME280;13578;53.450;15.496;2023-04-06T11:27:12;100174.88;;;9.84;62.46
25722;BME280;13578;53.450;15.496;2023-04-06T11:30:15;100164.66;;;9.63;62.13
25722;BME280;13578;53.450;15.496;2023-04-06T11:33:22;100175.22;;;9.45;62.82
25722;BME280;13578;53.450;15.496;2023-04-06T11:36:22;100189.59;;;9.60;65.37
25722;BME280;13578;53.450;15.496;2023-04-06T11:39:25;100158.69;;;9.92;60.79
25722;BME280;13578;53.450;15.496;2023-04-06T11:42:28;100149.72;;;10.01;59.07
25722;BME280;13578;53.450;15.496;2023-04-06T11:45:41;100159.19;;;9.52;60.29
25722;BME280;13578;53.450;15.496;2023-04-06T11:48:46;100168.84;;;9.22;61.43
25722;BME280;13578;53.450;15.496;2023-04-06T11:51:46;100152.13;;;9.14;59.95
25722;BME280;13578;53.450;15.496;2023-04-06T11:54:48;100184.78;;;8.93;62.97
25722;BME280;13578;53.450;15.496;2023-04-06T11:57:49;100149.59;;;8.88;59.32
25722;BME280;13578;53.450;15.496;2023-04-06T12:00:51;100155.88;;;8.53;61.46
25722;BME280;13578;53.450;15.496;2023-04-06T12:03:53;100138.41;;;8.42;58.68
25722;BME280;13578;53.450;15.496;2023-04-06T12:06:54;100136.66;;;8.41;59.07
25722;BME280;13578;53.450;15.496;2023-04-06T12:09:55;100144.06;;;8.28;59.49
25722;BME280;13578;53.450;15.496;2023-04-06T12:12:56;100133.44;;;7.99;58.53
25722;BME280;13578;53.450;15.496;2023-04-06T12:15:56;100143.78;;;8.07;59.04
25722;BME280;13578;53.450;15.496;2023-04-06T12:18:57;100140.72;;;8.11;59.32
25722;BME280;13578;53.450;15.496;2023-04-06T12:21:58;100124.31;;;8.11;58.04
25722;BME280;13578;53.450;15.496;2023-04-06T12:24:59;100121.91;;;8.31;57.65
25722;BME280;13578;53.450;15.496;2023-04-06T12:27:59;100124.47;;;8.46;57.58
25722;BME280;13578;53.450;15.496;2023-04-06T12:31:00;100132.34;;;8.74;59.32
25722;BME280;13578;53.450;15.496;2023-04-06T12:34:02;100141.19;;;9.14;59.53
25722;BME280;13578;53.450;15.496;2023-04-06T12:37:03;100096.91;;;9.31;54.83
25722;BME280;13578;53.450;15.496;2023-04-06T12:40:04;100113.47;;;9.41;56.25
25722;BME280;13578;53.450;15.496;2023-04-06T12:43:05;100185.00;;;9.83;64.89
25722;BME280;13578;53.450;15.496;2023-04-06T12:46:06;100109.13;;;9.61;56.46
25722;BME280;13578;53.450;15.496;2023-04-06T12:49:06;100106.44;;;9.14;57.24
25722;BME280;13578;53.450;15.496;2023-04-06T12:52:07;100102.84;;;9.02;56.97
25722;BME280;13578;53.450;15.496;2023-04-06T12:55:08;100091.63;;;9.05;55.11
25722;BME280;13578;53.450;15.496;2023-04-06T12:58:09;100084.31;;;8.59;53.73
25722;BME280;13578;53.450;15.496;2023-04-06T13:01:10;100092.78;;;8.43;55.56
25722;BME280;13578;53.450;15.496;2023-04-06T13:04:13;100091.84;;;8.31;56.30
25722;BME280;13578;53.450;15.496;2023-04-06T13:07:13;100126.13;;;8.48;59.26
25722;BME280;13578;53.450;15.496;2023-04-06T13:10:14;100068.34;;;8.53;54.61
25722;BME280;13578;53.450;15.496;2023-04-06T13:13:15;100061.31;;;8.62;53.82
25722;BME280;13578;53.450;15.496;2023-04-06T13:16:16;100073.19;;;8.96;55.35
25722;BME280;13578;53.450;15.496;2023-04-06T13:19:17;100122.28;;;9.33;59.86
25722;BME280;13578;53.450;15.496;2023-04-06T13:22:18;100108.34;;;9.70;59.72
25722;BME280;13578;53.450;15.496;2023-04-06T13:25:19;100076.56;;;9.91;57.05
25722;BME280;13578;53.450;15.496;2023-04-06T13:28:20;100051.97;;;10.12;53.77
25722;BME280;13578;53.450;15.496;2023-04-06T13:31:21;100075.16;;;10.19;56.22
25722;BME280;13578;53.450;15.496;2023-04-06T13:34:21;100017.84;;;10.05;50.84
25722;BME280;13578;53.450;15.496;2023-04-06T13:37:22;100056.00;;;9.85;53.49
25722;BME280;13578;53.450;15.496;2023-04-06T13:40:23;100048.97;;;9.37;52.94
25722;BME280;13578;53.450;15.496;2023-04-06T13:43:23;100038.13;;;9.13;52.92
25722;BME280;13578;53.450;15.496;2023-04-06T13:46:26;100059.31;;;8.64;55.00
25722;BME280;13578;53.450;15.496;2023-04-06T13:49:27;100046.31;;;8.19;54.57
25722;BME280;13578;53.450;15.496;2023-04-06T13:52:28;100074.50;;;7.95;55.67
25722;BME280;13578;53.450;15.496;2023-04-06T13:55:29;100084.81;;;7.78;56.75
25722;BME280;13578;53.450;15.496;2023-04-06T13:58:31;100063.19;;;7.75;56.51
25722;BME280;13578;53.450;15.496;2023-04-06T14:01:32;100074.63;;;8.18;56.87
25722;BME280;13578;53.450;15.496;2023-04-06T14:04:32;100071.41;;;8.24;56.58
25722;BME280;13578;53.450;15.496;2023-04-06T14:07:33;100077.78;;;8.49;57.89
25722;BME280;13578;53.450;15.496;2023-04-06T14:10:38;100066.44;;;8.78;56.79
25722;BME280;13578;53.450;15.496;2023-04-06T14:13:40;100037.47;;;8.86;54.50
25722;BME280;13578;53.450;15.496;2023-04-06T14:16:42;100057.78;;;9.06;55.92
25722;BME280;13578;53.450;15.496;2023-04-06T14:19:47;100033.03;;;9.19;54.07
25722;BME280;13578;53.450;15.496;2023-04-06T14:22:47;100031.81;;;9.35;53.98
25722;BME280;13578;53.450;15.496;2023-04-06T14:25:49;100041.75;;;9.47;55.19
25722;BME280;13578;53.450;15.496;2023-04-06T14:28:50;100038.00;;;9.48;54.95
25722;BME280;13578;53.450;15.496;2023-04-06T14:31:52;100022.81;;;9.33;52.58
25722;BME280;13578;53.450;15.496;2023-04-06T14:34:52;100004.16;;;9.15;52.45
25722;BME280;13578;53.450;15.496;2023-04-06T14:37:53;100041.22;;;9.08;54.88
25722;BME280;13578;53.450;15.496;2023-04-06T14:40:53;100030.16;;;8.98;53.65
25722;BME280;13578;53.450;15.496;2023-04-06T14:43:55;100022.16;;;8.72;54.22
25722;BME280;13578;53.450;15.496;2023-04-06T14:46:56;100032.06;;;8.62;54.27
25722;BME280;13578;53.450;15.496;2023-04-06T14:49:56;100031.47;;;8.34;53.88
25722;BME280;13578;53.450;15.496;2023-04-06T14:52:58;100033.91;;;8.26;54.86
25722;BME280;13578;53.450;15.496;2023-04-06T14:55:58;100025.34;;;8.31;54.68
25722;BME280;13578;53.450;15.496;2023-04-06T14:58:59;100055.91;;;8.24;56.92
25722;BME280;13578;53.450;15.496;2023-04-06T15:02:02;100043.88;;;8.38;55.79
25722;BME280;13578;53.450;15.496;2023-04-06T15:05:03;100061.09;;;8.76;57.82
25722;BME280;13578;53.450;15.496;2023-04-06T15:08:05;100036.78;;;8.60;55.61
25722;BME280;13578;53.450;15.496;2023-04-06T15:11:06;100023.22;;;8.58;54.88
25722;BME280;13578;53.450;15.496;2023-04-06T15:14:06;100012.16;;;8.60;53.89
25722;BME280;13578;53.450;15.496;2023-04-06T15:17:07;100025.09;;;8.58;54.65
25722;BME280;13578;53.450;15.496;2023-04-06T15:20:08;100033.34;;;8.69;54.38
25722;BME280;13578;53.450;15.496;2023-04-06T15:23:09;100024.91;;;8.72;53.75
25722;BME280;13578;53.450;15.496;2023-04-06T15:26:09;100002.47;;;8.56;51.91
25722;BME280;13578;53.450;15.496;2023-04-06T15:29:10;99997.16;;;8.41;51.70
25722;BME280;13578;53.450;15.496;2023-04-06T15:32:11;100000.13;;;8.38;52.09
25722;BME280;13578;53.450;15.496;2023-04-06T15:35:12;100007.59;;;8.36;52.34
25722;BME280;13578;53.450;15.496;2023-04-06T15:38:13;100003.69;;;8.27;52.70